LKPN weather

Podhořany Airport
Podhořany, Pardubice Region, Czech Republic

Public forecast

Using degrees Celsius for public forecast. Weather courtesy of forecast.io.

Closest aviation weather report (METAR) to Podhořany Airport

Closest report is Čáslav Air Base, 6.5 nm (12.0 km) W. Retrieved 2020/06/05 05:00 UTC (35 minutes ago):

LKCV 050500Z 22005KT 9999 -RA NSC 14/12 Q0995 NOSIG

Closest aviation forecast (TAF) to Podhořany Airport

Closest forecast is Čáslav Air Base, 6.5 nm (12.0 km) W. Retrieved 2020-06-05 00:06 UTC (5 hours ago):

TAF LKCV 042300Z 0500/0600 21006KT 9999 BKN035 TEMPO 0500/0502 BKN030TCU TEMPO 0500/0512 7000 RA SCT020 BKN035 PROB40 TEMPO 0512/0518 27012KT 7000 SHRA BKN030TCU